sensor_id;sensor_type;location;lat;lon;timestamp;P1;durP1;ratioP1;P2;durP2;ratioP2
58354;SDS011;44160;49.080;19.302;2023-02-22T00:01:50;14.52;;;9.90;;
58354;SDS011;44160;49.080;19.302;2023-02-22T00:04:40;17.27;;;10.00;;
58354;SDS011;44160;49.080;19.302;2023-02-22T00:07:19;24.83;;;11.77;;
58354;SDS011;44160;49.080;19.302;2023-02-22T00:09:47;23.02;;;11.20;;
58354;SDS011;44160;49.080;19.302;2023-02-22T00:12:20;19.20;;;10.88;;
58354;SDS011;44160;49.080;19.302;2023-02-22T00:14:46;17.85;;;9.57;;
58354;SDS011;44160;49.080;19.302;2023-02-22T00:17:13;14.82;;;8.90;;
58354;SDS011;44160;49.080;19.302;2023-02-22T00:19:40;17.80;;;8.88;;
58354;SDS011;44160;49.080;19.302;2023-02-22T00:22:06;13.75;;;7.75;;
58354;SDS011;44160;49.080;19.302;2023-02-22T00:24:32;13.27;;;7.88;;
58354;SDS011;44160;49.080;19.302;2023-02-22T00:27:00;14.50;;;7.63;;
58354;SDS011;44160;49.080;19.302;2023-02-22T00:29:30;11.70;;;6.70;;
58354;SDS011;44160;49.080;19.302;2023-02-22T00:31:59;11.98;;;7.50;;
58354;SDS011;44160;49.080;19.302;2023-02-22T00:34:34;14.30;;;7.22;;
58354;SDS011;44160;49.080;19.302;2023-02-22T00:37:16;7.90;;;5.82;;
58354;SDS011;44160;49.080;19.302;2023-02-22T00:39:46;13.43;;;6.80;;
58354;SDS011;44160;49.080;19.302;2023-02-22T00:42:12;10.15;;;6.20;;
58354;SDS011;44160;49.080;19.302;2023-02-22T00:44:44;9.07;;;5.18;;
58354;SDS011;44160;49.080;19.302;2023-02-22T00:47:46;8.05;;;5.30;;
58354;SDS011;44160;49.080;19.302;2023-02-22T00:50:13;7.57;;;5.30;;
58354;SDS011;44160;49.080;19.302;2023-02-22T00:52:39;11.80;;;7.03;;
58354;SDS011;44160;49.080;19.302;2023-02-22T00:55:08;10.05;;;5.90;;
58354;SDS011;44160;49.080;19.302;2023-02-22T00:57:34;10.25;;;6.47;;
58354;SDS011;44160;49.080;19.302;2023-02-22T01:00:04;13.57;;;7.22;;
58354;SDS011;44160;49.080;19.302;2023-02-22T01:02:41;15.98;;;8.25;;
58354;SDS011;44160;49.080;19.302;2023-02-22T01:05:18;20.60;;;9.68;;
58354;SDS011;44160;49.080;19.302;2023-02-22T01:07:48;18.45;;;8.82;;
58354;SDS011;44160;49.080;19.302;2023-02-22T01:10:19;21.05;;;10.55;;
58354;SDS011;44160;49.080;19.302;2023-02-22T01:12:45;19.80;;;9.93;;
58354;SDS011;44160;49.080;19.302;2023-02-22T01:15:15;11.25;;;7.97;;
58354;SDS011;44160;49.080;19.302;2023-02-22T01:17:41;14.23;;;8.48;;
58354;SDS011;44160;49.080;19.302;2023-02-22T01:20:08;17.02;;;9.10;;
58354;SDS011;44160;49.080;19.302;2023-02-22T01:22:37;14.40;;;8.40;;
58354;SDS011;44160;49.080;19.302;2023-02-22T01:25:03;12.80;;;8.15;;
58354;SDS011;44160;49.080;19.302;2023-02-22T01:27:58;12.45;;;8.02;;
58354;SDS011;44160;49.080;19.302;2023-02-22T01:30:27;12.55;;;7.97;;
58354;SDS011;44160;49.080;19.302;2023-02-22T01:33:12;12.98;;;8.32;;
58354;SDS011;44160;49.080;19.302;2023-02-22T01:35:42;12.25;;;7.57;;
58354;SDS011;44160;49.080;19.302;2023-02-22T01:38:10;12.40;;;7.30;;
58354;SDS011;44160;49.080;19.302;2023-02-22T01:40:43;11.20;;;7.10;;
58354;SDS011;44160;49.080;19.302;2023-02-22T01:43:19;8.93;;;6.25;;
58354;SDS011;44160;49.080;19.302;2023-02-22T01:48:38;10.15;;;5.95;;
58354;SDS011;44160;49.080;19.302;2023-02-22T01:51:24;9.57;;;6.13;;
58354;SDS011;44160;49.080;19.302;2023-02-22T01:54:01;15.00;;;6.90;;
58354;SDS011;44160;49.080;19.302;2023-02-22T01:56:44;10.10;;;6.20;;
58354;SDS011;44160;49.080;19.302;2023-02-22T01:59:23;8.48;;;6.80;;
58354;SDS011;44160;49.080;19.302;2023-02-22T02:05:27;7.15;;;5.00;;
58354;SDS011;44160;49.080;19.302;2023-02-22T02:07:57;9.77;;;4.80;;
58354;SDS011;44160;49.080;19.302;2023-02-22T02:10:27;8.50;;;5.20;;
58354;SDS011;44160;49.080;19.302;2023-02-22T02:12:53;8.25;;;5.35;;
58354;SDS011;44160;49.080;19.302;2023-02-22T02:17:47;8.35;;;5.95;;
58354;SDS011;44160;49.080;19.302;2023-02-22T02:20:28;9.40;;;6.15;;
58354;SDS011;44160;49.080;19.302;2023-02-22T02:36:07;15.25;;;9.30;;
58354;SDS011;44160;49.080;19.302;2023-02-22T02:38:21;14.73;;;8.52;;
58354;SDS011;44160;49.080;19.302;2023-02-22T02:41:02;11.05;;;7.70;;
58354;SDS011;44160;49.080;19.302;2023-02-22T02:43:36;9.55;;;6.78;;
58354;SDS011;44160;49.080;19.302;2023-02-22T02:46:20;11.13;;;7.38;;
58354;SDS011;44160;49.080;19.302;2023-02-22T02:49:13;11.23;;;8.15;;
58354;SDS011;44160;49.080;19.302;2023-02-22T02:51:41;9.63;;;7.03;;
58354;SDS011;44160;49.080;19.302;2023-02-22T02:54:09;9.30;;;6.35;;
58354;SDS011;44160;49.080;19.302;2023-02-22T02:56:45;11.60;;;5.72;;
58354;SDS011;44160;49.080;19.302;2023-02-22T02:59:40;9.63;;;6.50;;
58354;SDS011;44160;49.080;19.302;2023-02-22T03:13:15;8.27;;;5.47;;
58354;SDS011;44160;49.080;19.302;2023-02-22T03:16:14;7.28;;;5.03;;
58354;SDS011;44160;49.080;19.302;2023-02-22T03:19:30;8.18;;;5.45;;
58354;SDS011;44160;49.080;19.302;2023-02-22T03:27:44;8.57;;;4.72;;
58354;SDS011;44160;49.080;19.302;2023-02-22T03:30:17;8.05;;;5.35;;
58354;SDS011;44160;49.080;19.302;2023-02-22T03:35:58;12.45;;;6.82;;
58354;SDS011;44160;49.080;19.302;2023-02-22T03:38:22;7.90;;;6.13;;
58354;SDS011;44160;49.080;19.302;2023-02-22T03:40:49;8.73;;;5.90;;
58354;SDS011;44160;49.080;19.302;2023-02-22T03:43:17;11.15;;;6.70;;
58354;SDS011;44160;49.080;19.302;2023-02-22T03:45:47;9.00;;;6.18;;
58354;SDS011;44160;49.080;19.302;2023-02-22T03:50:56;9.68;;;6.32;;
58354;SDS011;44160;49.080;19.302;2023-02-22T03:53:22;10.00;;;5.22;;
58354;SDS011;44160;49.080;19.302;2023-02-22T03:55:50;7.47;;;5.10;;
58354;SDS011;44160;49.080;19.302;2023-02-22T03:58:19;11.50;;;5.38;;
58354;SDS011;44160;49.080;19.302;2023-02-22T04:00:46;8.25;;;4.70;;
58354;SDS011;44160;49.080;19.302;2023-02-22T04:03:17;7.13;;;4.68;;
58354;SDS011;44160;49.080;19.302;2023-02-22T04:05:43;7.18;;;4.70;;
58354;SDS011;44160;49.080;19.302;2023-02-22T04:08:19;10.13;;;4.32;;
58354;SDS011;44160;49.080;19.302;2023-02-22T04:10:45;8.18;;;3.80;;
58354;SDS011;44160;49.080;19.302;2023-02-22T04:13:11;7.85;;;4.10;;
58354;SDS011;44160;49.080;19.302;2023-02-22T04:16:15;11.10;;;3.90;;
58354;SDS011;44160;49.080;19.302;2023-02-22T04:18:43;11.57;;;5.97;;
58354;SDS011;44160;49.080;19.302;2023-02-22T04:21:12;11.75;;;4.30;;
58354;SDS011;44160;49.080;19.302;2023-02-22T04:23:39;10.85;;;5.60;;
58354;SDS011;44160;49.080;19.302;2023-02-22T04:26:05;11.65;;;7.05;;
58354;SDS011;44160;49.080;19.302;2023-02-22T04:28:34;16.23;;;7.07;;
58354;SDS011;44160;49.080;19.302;2023-02-22T04:31:06;8.13;;;5.65;;
58354;SDS011;44160;49.080;19.302;2023-02-22T04:33:32;9.57;;;5.55;;
58354;SDS011;44160;49.080;19.302;2023-02-22T04:35:58;8.65;;;4.70;;
58354;SDS011;44160;49.080;19.302;2023-02-22T04:38:24;10.25;;;6.32;;
58354;SDS011;44160;49.080;19.302;2023-02-22T04:40:54;8.25;;;4.65;;
58354;SDS011;44160;49.080;19.302;2023-02-22T04:43:20;11.95;;;5.50;;
58354;SDS011;44160;49.080;19.302;2023-02-22T04:45:46;9.27;;;5.20;;
58354;SDS011;44160;49.080;19.302;2023-02-22T04:48:12;12.57;;;5.60;;
58354;SDS011;44160;49.080;19.302;2023-02-22T04:50:38;15.88;;;5.40;;
58354;SDS011;44160;49.080;19.302;2023-02-22T04:53:05;13.35;;;5.70;;
58354;SDS011;44160;49.080;19.302;2023-02-22T04:55:31;11.35;;;6.55;;
58354;SDS011;44160;49.080;19.302;2023-02-22T04:57:58;14.20;;;6.50;;
58354;SDS011;44160;49.080;19.302;2023-02-22T05:00:24;13.00;;;7.20;;
58354;SDS011;44160;49.080;19.302;2023-02-22T05:02:53;13.85;;;7.63;;
58354;SDS011;44160;49.080;19.302;2023-02-22T05:05:22;12.82;;;8.02;;
58354;SDS011;44160;49.080;19.302;2023-02-22T05:07:48;13.32;;;7.50;;
58354;SDS011;44160;49.080;19.302;2023-02-22T05:10:15;14.68;;;8.02;;
58354;SDS011;44160;49.080;19.302;2023-02-22T05:12:41;14.38;;;7.40;;
58354;SDS011;44160;49.080;19.302;2023-02-22T05:15:08;14.57;;;8.07;;
58354;SDS011;44160;49.080;19.302;2023-02-22T05:17:34;15.05;;;7.88;;
58354;SDS011;44160;49.080;19.302;2023-02-22T05:20:01;11.98;;;8.02;;
58354;SDS011;44160;49.080;19.302;2023-02-22T05:22:31;18.70;;;10.20;;
58354;SDS011;44160;49.080;19.302;2023-02-22T05:27:47;50.90;;;32.38;;
58354;SDS011;44160;49.080;19.302;2023-02-22T05:30:16;38.08;;;21.10;;
58354;SDS011;44160;49.080;19.302;2023-02-22T05:32:46;20.55;;;12.02;;
58354;SDS011;44160;49.080;19.302;2023-02-22T05:35:16;18.13;;;10.13;;
58354;SDS011;44160;49.080;19.302;2023-02-22T05:37:42;15.38;;;9.18;;
58354;SDS011;44160;49.080;19.302;2023-02-22T05:40:08;11.60;;;7.15;;
58354;SDS011;44160;49.080;19.302;2023-02-22T05:42:38;12.23;;;7.43;;
58354;SDS011;44160;49.080;19.302;2023-02-22T05:45:04;11.48;;;6.15;;
58354;SDS011;44160;49.080;19.302;2023-02-22T05:47:39;13.02;;;6.30;;
58354;SDS011;44160;49.080;19.302;2023-02-22T05:50:14;13.68;;;6.57;;
58354;SDS011;44160;49.080;19.302;2023-02-22T05:52:44;13.60;;;6.95;;
58354;SDS011;44160;49.080;19.302;2023-02-22T05:55:12;10.55;;;6.88;;
58354;SDS011;44160;49.080;19.302;2023-02-22T05:57:38;17.38;;;9.05;;
58354;SDS011;44160;49.080;19.302;2023-02-22T06:00:14;13.35;;;7.93;;
58354;SDS011;44160;49.080;19.302;2023-02-22T06:02:44;16.92;;;10.32;;
58354;SDS011;44160;49.080;19.302;2023-02-22T06:05:13;17.30;;;7.03;;
58354;SDS011;44160;49.080;19.302;2023-02-22T06:07:39;12.38;;;8.02;;
58354;SDS011;44160;49.080;19.302;2023-02-22T06:13:22;26.98;;;14.68;;
58354;SDS011;44160;49.080;19.302;2023-02-22T06:15:51;29.90;;;13.48;;
58354;SDS011;44160;49.080;19.302;2023-02-22T06:18:27;23.30;;;11.90;;
58354;SDS011;44160;49.080;19.302;2023-02-22T06:20:55;21.50;;;12.02;;
58354;SDS011;44160;49.080;19.302;2023-02-22T06:23:30;51.05;;;28.63;;
58354;SDS011;44160;49.080;19.302;2023-02-22T06:25:56;21.27;;;13.25;;
58354;SDS011;44160;49.080;19.302;2023-02-22T06:28:28;23.38;;;11.45;;
58354;SDS011;44160;49.080;19.302;2023-02-22T06:30:57;19.13;;;10.93;;
58354;SDS011;44160;49.080;19.302;2023-02-22T06:33:26;22.42;;;11.45;;
58354;SDS011;44160;49.080;19.302;2023-02-22T06:35:55;19.25;;;10.40;;
58354;SDS011;44160;49.080;19.302;2023-02-22T06:38:31;21.02;;;10.05;;
58354;SDS011;44160;49.080;19.302;2023-02-22T06:40:57;22.42;;;11.18;;
58354;SDS011;44160;49.080;19.302;2023-02-22T06:43:29;19.13;;;9.60;;
58354;SDS011;44160;49.080;19.302;2023-02-22T06:45:58;24.70;;;10.73;;
58354;SDS011;44160;49.080;19.302;2023-02-22T06:48:24;22.33;;;11.00;;
58354;SDS011;44160;49.080;19.302;2023-02-22T06:50:50;23.02;;;11.98;;
58354;SDS011;44160;49.080;19.302;2023-02-22T06:53:16;22.10;;;12.80;;
58354;SDS011;44160;49.080;19.302;2023-02-22T06:55:42;19.75;;;9.90;;
58354;SDS011;44160;49.080;19.302;2023-02-22T06:58:08;18.58;;;9.80;;
58354;SDS011;44160;49.080;19.302;2023-02-22T07:00:34;28.25;;;9.05;;
58354;SDS011;44160;49.080;19.302;2023-02-22T07:03:02;16.70;;;9.15;;
58354;SDS011;44160;49.080;19.302;2023-02-22T07:05:28;15.30;;;7.15;;
58354;SDS011;44160;49.080;19.302;2023-02-22T07:08:13;15.40;;;8.07;;
58354;SDS011;44160;49.080;19.302;2023-02-22T07:10:39;13.15;;;5.38;;
58354;SDS011;44160;49.080;19.302;2023-02-22T07:13:07;12.90;;;7.20;;
58354;SDS011;44160;49.080;19.302;2023-02-22T07:15:34;14.43;;;7.53;;
58354;SDS011;44160;49.080;19.302;2023-02-22T07:18:15;13.13;;;7.63;;
58354;SDS011;44160;49.080;19.302;2023-02-22T07:20:51;14.60;;;7.70;;
58354;SDS011;44160;49.080;19.302;2023-02-22T07:23:22;13.73;;;8.52;;
58354;SDS011;44160;49.080;19.302;2023-02-22T07:25:48;15.88;;;8.02;;
58354;SDS011;44160;49.080;19.302;2023-02-22T07:31:21;21.83;;;11.43;;
58354;SDS011;44160;49.080;19.302;2023-02-22T07:34:00;20.30;;;11.55;;
58354;SDS011;44160;49.080;19.302;2023-02-22T07:36:26;26.08;;;12.70;;
58354;SDS011;44160;49.080;19.302;2023-02-22T07:38:52;21.17;;;10.35;;
58354;SDS011;44160;49.080;19.302;2023-02-22T07:41:18;19.65;;;10.88;;
58354;SDS011;44160;49.080;19.302;2023-02-22T07:43:46;25.98;;;11.75;;
58354;SDS011;44160;49.080;19.302;2023-02-22T07:46:13;20.95;;;12.05;;
58354;SDS011;44160;49.080;19.302;2023-02-22T07:48:39;20.27;;;11.07;;
58354;SDS011;44160;49.080;19.302;2023-02-22T07:51:08;20.95;;;10.00;;
58354;SDS011;44160;49.080;19.302;2023-02-22T07:53:36;19.50;;;10.07;;
58354;SDS011;44160;49.080;19.302;2023-02-22T07:56:03;15.38;;;8.57;;
58354;SDS011;44160;49.080;19.302;2023-02-22T07:58:30;21.13;;;9.10;;
58354;SDS011;44160;49.080;19.302;2023-02-22T08:00:56;16.63;;;8.45;;
58354;SDS011;44160;49.080;19.302;2023-02-22T08:03:25;12.65;;;6.28;;
58354;SDS011;44160;49.080;19.302;2023-02-22T08:05:55;11.07;;;6.40;;
58354;SDS011;44160;49.080;19.302;2023-02-22T08:08:24;17.30;;;6.22;;
58354;SDS011;44160;49.080;19.302;2023-02-22T08:10:54;16.30;;;10.05;;
58354;SDS011;44160;49.080;19.302;2023-02-22T08:13:20;14.70;;;6.75;;
58354;SDS011;44160;49.080;19.302;2023-02-22T08:15:48;14.10;;;5.80;;
58354;SDS011;44160;49.080;19.302;2023-02-22T08:18:15;7.82;;;4.10;;
58354;SDS011;44160;49.080;19.302;2023-02-22T08:20:42;20.95;;;7.55;;
58354;SDS011;44160;49.080;19.302;2023-02-22T08:23:12;13.70;;;4.85;;
58354;SDS011;44160;49.080;19.302;2023-02-22T08:25:44;13.07;;;4.63;;
58354;SDS011;44160;49.080;19.302;2023-02-22T08:28:14;15.60;;;6.43;;
58354;SDS011;44160;49.080;19.302;2023-02-22T08:30:43;13.57;;;5.43;;
58354;SDS011;44160;49.080;19.302;2023-02-22T08:33:13;13.15;;;5.43;;
58354;SDS011;44160;49.080;19.302;2023-02-22T08:36:00;16.63;;;5.10;;
58354;SDS011;44160;49.080;19.302;2023-02-22T08:38:27;9.07;;;4.10;;
58354;SDS011;44160;49.080;19.302;2023-02-22T08:40:53;15.35;;;5.05;;
58354;SDS011;44160;49.080;19.302;2023-02-22T08:43:20;10.63;;;4.72;;
58354;SDS011;44160;49.080;19.302;2023-02-22T08:45:48;12.23;;;5.18;;
58354;SDS011;44160;49.080;19.302;2023-02-22T08:48:15;13.60;;;4.55;;
58354;SDS011;44160;49.080;19.302;2023-02-22T08:50:41;6.13;;;3.17;;
58354;SDS011;44160;49.080;19.302;2023-02-22T08:53:08;12.25;;;3.95;;
58354;SDS011;44160;49.080;19.302;2023-02-22T08:55:46;8.20;;;3.13;;
58354;SDS011;44160;49.080;19.302;2023-02-22T08:58:15;11.77;;;3.15;;
58354;SDS011;44160;49.080;19.302;2023-02-22T09:00:42;9.98;;;2.63;;
58354;SDS011;44160;49.080;19.302;2023-02-22T09:03:09;9.98;;;2.58;;
58354;SDS011;44160;49.080;19.302;2023-02-22T09:05:37;6.63;;;3.00;;
58354;SDS011;44160;49.080;19.302;2023-02-22T09:08:03;15.25;;;3.15;;
58354;SDS011;44160;49.080;19.302;2023-02-22T09:10:31;7.18;;;3.17;;
58354;SDS011;44160;49.080;19.302;2023-02-22T09:12:59;8.75;;;3.92;;
58354;SDS011;44160;49.080;19.302;2023-02-22T09:15:28;9.23;;;3.22;;
58354;SDS011;44160;49.080;19.302;2023-02-22T09:17:56;10.40;;;3.50;;
58354;SDS011;44160;49.080;19.302;2023-02-22T09:20:22;10.35;;;3.75;;
58354;SDS011;44160;49.080;19.302;2023-02-22T09:22:49;17.17;;;4.50;;
58354;SDS011;44160;49.080;19.302;2023-02-22T09:25:16;14.00;;;4.00;;
58354;SDS011;44160;49.080;19.302;2023-02-22T09:27:48;10.93;;;3.60;;
58354;SDS011;44160;49.080;19.302;2023-02-22T09:30:19;8.38;;;3.35;;
58354;SDS011;44160;49.080;19.302;2023-02-22T09:32:52;13.02;;;4.80;;
58354;SDS011;44160;49.080;19.302;2023-02-22T09:35:22;12.90;;;4.65;;
58354;SDS011;44160;49.080;19.302;2023-02-22T09:37:58;11.05;;;3.45;;
58354;SDS011;44160;49.080;19.302;2023-02-22T09:40:39;9.82;;;2.97;;
58354;SDS011;44160;49.080;19.302;2023-02-22T09:43:18;4.65;;;2.45;;
58354;SDS011;44160;49.080;19.302;2023-02-22T09:48:40;6.63;;;3.03;;
58354;SDS011;44160;49.080;19.302;2023-02-22T09:51:14;8.10;;;2.80;;
58354;SDS011;44160;49.080;19.302;2023-02-22T09:53:59;8.77;;;2.85;;
58354;SDS011;44160;49.080;19.302;2023-02-22T09:56:32;8.05;;;2.42;;
58354;SDS011;44160;49.080;19.302;2023-02-22T09:59:23;8.15;;;2.53;;
58354;SDS011;44160;49.080;19.302;2023-02-22T10:05:04;7.50;;;3.03;;
58354;SDS011;44160;49.080;19.302;2023-02-22T10:07:32;6.25;;;3.10;;
58354;SDS011;44160;49.080;19.302;2023-02-22T10:10:01;6.85;;;2.72;;
58354;SDS011;44160;49.080;19.302;2023-02-22T10:17:56;9.85;;;4.72;;
58354;SDS011;44160;49.080;19.302;2023-02-22T10:23:16;8.27;;;3.25;;
58354;SDS011;44160;49.080;19.302;2023-02-22T10:28:53;9.05;;;3.45;;
58354;SDS011;44160;49.080;19.302;2023-02-22T10:31:23;8.18;;;2.80;;
58354;SDS011;44160;49.080;19.302;2023-02-22T10:34:00;9.07;;;3.40;;
58354;SDS011;44160;49.080;19.302;2023-02-22T10:36:33;9.32;;;3.45;;
58354;SDS011;44160;49.080;19.302;2023-02-22T10:39:14;10.35;;;3.92;;
58354;SDS011;44160;49.080;19.302;2023-02-22T10:41:52;10.55;;;3.72;;
58354;SDS011;44160;49.080;19.302;2023-02-22T10:44:29;6.72;;;3.40;;
58354;SDS011;44160;49.080;19.302;2023-02-22T10:46:55;22.27;;;10.50;;
58354;SDS011;44160;49.080;19.302;2023-02-22T10:49:32;61.30;;;24.27;;
58354;SDS011;44160;49.080;19.302;2023-02-22T10:52:06;93.80;;;33.60;;
58354;SDS011;44160;49.080;19.302;2023-02-22T10:54:43;20.55;;;10.07;;
58354;SDS011;44160;49.080;19.302;2023-02-22T10:59:38;9.27;;;3.25;;
58354;SDS011;44160;49.080;19.302;2023-02-22T11:04:57;6.57;;;3.10;;
58354;SDS011;44160;49.080;19.302;2023-02-22T11:07:28;8.05;;;2.47;;
58354;SDS011;44160;49.080;19.302;2023-02-22T11:10:14;4.85;;;2.42;;
58354;SDS011;44160;49.080;19.302;2023-02-22T11:13:01;8.20;;;2.63;;
58354;SDS011;44160;49.080;19.302;2023-02-22T11:15:44;5.68;;;2.85;;
58354;SDS011;44160;49.080;19.302;2023-02-22T11:18:26;10.25;;;2.80;;
58354;SDS011;44160;49.080;19.302;2023-02-22T11:21:06;8.77;;;2.80;;
58354;SDS011;44160;49.080;19.302;2023-02-22T11:23:34;6.88;;;2.38;;
58354;SDS011;44160;49.080;19.302;2023-02-22T11:26:02;6.20;;;2.92;;
58354;SDS011;44160;49.080;19.302;2023-02-22T11:28:29;4.18;;;2.40;;
58354;SDS011;44160;49.080;19.302;2023-02-22T11:31:10;8.88;;;3.10;;
58354;SDS011;44160;49.080;19.302;2023-02-22T11:33:36;9.18;;;2.97;;
58354;SDS011;44160;49.080;19.302;2023-02-22T11:36:04;5.63;;;2.40;;
58354;SDS011;44160;49.080;19.302;2023-02-22T11:38:34;6.55;;;2.70;;
58354;SDS011;44160;49.080;19.302;2023-02-22T11:43:52;5.97;;;3.60;;
58354;SDS011;44160;49.080;19.302;2023-02-22T11:46:19;7.80;;;3.10;;
58354;SDS011;44160;49.080;19.302;2023-02-22T11:48:56;6.25;;;2.85;;
58354;SDS011;44160;49.080;19.302;2023-02-22T11:56:52;5.70;;;2.93;;
58354;SDS011;44160;49.080;19.302;2023-02-22T12:01:57;7.70;;;3.08;;
58354;SDS011;44160;49.080;19.302;2023-02-22T12:12:42;7.57;;;2.70;;
58354;SDS011;44160;49.080;19.302;2023-02-22T12:15:22;6.82;;;2.33;;
58354;SDS011;44160;49.080;19.302;2023-02-22T12:20:45;5.07;;;2.63;;
58354;SDS011;44160;49.080;19.302;2023-02-22T12:28:46;5.55;;;3.10;;
58354;SDS011;44160;49.080;19.302;2023-02-22T12:37:29;7.20;;;2.60;;
58354;SDS011;44160;49.080;19.302;2023-02-22T12:42:30;6.20;;;2.40;;
58354;SDS011;44160;49.080;19.302;2023-02-22T12:45:07;5.82;;;2.53;;
58354;SDS011;44160;49.080;19.302;2023-02-22T12:47:48;4.05;;;1.95;;
58354;SDS011;44160;49.080;19.302;2023-02-22T12:50:17;7.88;;;2.78;;
58354;SDS011;44160;49.080;19.302;2023-02-22T12:52:52;5.55;;;2.83;;
58354;SDS011;44160;49.080;19.302;2023-02-22T12:55:28;6.85;;;2.53;;
58354;SDS011;44160;49.080;19.302;2023-02-22T12:58:06;5.93;;;2.22;;
58354;SDS011;44160;49.080;19.302;2023-02-22T13:00:38;7.60;;;2.35;;
58354;SDS011;44160;49.080;19.302;2023-02-22T13:06:09;4.45;;;2.80;;
58354;SDS011;44160;49.080;19.302;2023-02-22T13:16:47;7.38;;;3.97;;
58354;SDS011;44160;49.080;19.302;2023-02-22T13:19:28;7.82;;;2.83;;
58354;SDS011;44160;49.080;19.302;2023-02-22T13:22:14;9.10;;;3.45;;
58354;SDS011;44160;49.080;19.302;2023-02-22T13:41:46;6.53;;;4.03;;
58354;SDS011;44160;49.080;19.302;2023-02-22T13:49:42;6.97;;;4.63;;
58354;SDS011;44160;49.080;19.302;2023-02-22T13:52:41;6.45;;;2.33;;
58354;SDS011;44160;49.080;19.302;2023-02-22T13:55:15;4.85;;;2.45;;
58354;SDS011;44160;49.080;19.302;2023-02-22T13:58:24;5.03;;;2.42;;
58354;SDS011;44160;49.080;19.302;2023-02-22T14:03:46;5.15;;;2.60;;
58354;SDS011;44160;49.080;19.302;2023-02-22T14:09:16;3.55;;;2.22;;
58354;SDS011;44160;49.080;19.302;2023-02-22T14:11:47;4.55;;;2.08;;
58354;SDS011;44160;49.080;19.302;2023-02-22T14:14:18;4.82;;;2.70;;
58354;SDS011;44160;49.080;19.302;2023-02-22T14:16:53;6.72;;;2.80;;
58354;SDS011;44160;49.080;19.302;2023-02-22T14:19:30;4.45;;;2.50;;
58354;SDS011;44160;49.080;19.302;2023-02-22T14:22:02;6.90;;;2.97;;
58354;SDS011;44160;49.080;19.302;2023-02-22T14:24:50;4.18;;;2.33;;
58354;SDS011;44160;49.080;19.302;2023-02-22T14:27:16;9.02;;;5.88;;
58354;SDS011;44160;49.080;19.302;2023-02-22T14:29:49;6.63;;;4.47;;
58354;SDS011;44160;49.080;19.302;2023-02-22T14:32:17;9.27;;;4.88;;
58354;SDS011;44160;49.080;19.302;2023-02-22T14:40:09;10.07;;;4.53;;
58354;SDS011;44160;49.080;19.302;2023-02-22T14:45:49;4.97;;;3.05;;
58354;SDS011;44160;49.080;19.302;2023-02-22T14:50:57;5.63;;;2.75;;
58354;SDS011;44160;49.080;19.302;2023-02-22T14:53:39;6.20;;;2.90;;
58354;SDS011;44160;49.080;19.302;2023-02-22T14:56:14;5.57;;;3.17;;
58354;SDS011;44160;49.080;19.302;2023-02-22T15:01:27;4.85;;;2.45;;
58354;SDS011;44160;49.080;19.302;2023-02-22T15:06:45;5.05;;;2.63;;
58354;SDS011;44160;49.080;19.302;2023-02-22T15:09:14;5.65;;;3.42;;
58354;SDS011;44160;49.080;19.302;2023-02-22T15:11:51;3.60;;;2.63;;
58354;SDS011;44160;49.080;19.302;2023-02-22T15:14:19;4.55;;;2.80;;
58354;SDS011;44160;49.080;19.302;2023-02-22T15:16:48;6.88;;;3.45;;
58354;SDS011;44160;49.080;19.302;2023-02-22T15:19:16;7.40;;;3.63;;
58354;SDS011;44160;49.080;19.302;2023-02-22T15:21:49;8.35;;;4.22;;
58354;SDS011;44160;49.080;19.302;2023-02-22T15:24:20;12.02;;;5.45;;
58354;SDS011;44160;49.080;19.302;2023-02-22T15:26:46;9.25;;;4.53;;
58354;SDS011;44160;49.080;19.302;2023-02-22T15:31:45;11.38;;;5.13;;
58354;SDS011;44160;49.080;19.302;2023-02-22T15:45:01;20.52;;;10.93;;
58354;SDS011;44160;49.080;19.302;2023-02-22T15:47:36;7.70;;;4.50;;
58354;SDS011;44160;49.080;19.302;2023-02-22T15:50:14;5.07;;;3.53;;
58354;SDS011;44160;49.080;19.302;2023-02-22T15:52:57;8.32;;;3.47;;
58354;SDS011;44160;49.080;19.302;2023-02-22T15:58:47;5.93;;;3.30;;
58354;SDS011;44160;49.080;19.302;2023-02-22T16:01:14;6.03;;;4.00;;
58354;SDS011;44160;49.080;19.302;2023-02-22T16:03:57;5.57;;;3.47;;
58354;SDS011;44160;49.080;19.302;2023-02-22T16:06:34;5.38;;;3.13;;
58354;SDS011;44160;49.080;19.302;2023-02-22T16:09:07;4.30;;;3.25;;
58354;SDS011;44160;49.080;19.302;2023-02-22T16:11:35;6.13;;;3.17;;
58354;SDS011;44160;49.080;19.302;2023-02-22T16:14:24;5.13;;;2.92;;
58354;SDS011;44160;49.080;19.302;2023-02-22T16:17:22;5.78;;;2.83;;
58354;SDS011;44160;49.080;19.302;2023-02-22T16:20:37;4.10;;;2.90;;
58354;SDS011;44160;49.080;19.302;2023-02-22T16:22:45;4.97;;;3.17;;
58354;SDS011;44160;49.080;19.302;2023-02-22T16:27:47;6.30;;;3.33;;
58354;SDS011;44160;49.080;19.302;2023-02-22T16:36:03;6.15;;;3.17;;
58354;SDS011;44160;49.080;19.302;2023-02-22T16:38:30;11.38;;;3.92;;
58354;SDS011;44160;49.080;19.302;2023-02-22T16:40:57;10.07;;;3.80;;
58354;SDS011;44160;49.080;19.302;2023-02-22T16:43:25;8.95;;;4.18;;
58354;SDS011;44160;49.080;19.302;2023-02-22T16:45:54;11.77;;;5.45;;
58354;SDS011;44160;49.080;19.302;2023-02-22T16:48:21;7.50;;;4.47;;
58354;SDS011;44160;49.080;19.302;2023-02-22T16:50:48;7.68;;;4.40;;
58354;SDS011;44160;49.080;19.302;2023-02-22T16:53:17;6.72;;;3.85;;
58354;SDS011;44160;49.080;19.302;2023-02-22T16:55:46;13.13;;;6.45;;
58354;SDS011;44160;49.080;19.302;2023-02-22T16:58:12;8.23;;;4.68;;
58354;SDS011;44160;49.080;19.302;2023-02-22T17:00:40;12.23;;;5.35;;
58354;SDS011;44160;49.080;19.302;2023-02-22T17:03:13;12.70;;;6.07;;
58354;SDS011;44160;49.080;19.302;2023-02-22T17:05:40;11.00;;;5.72;;
58354;SDS011;44160;49.080;19.302;2023-02-22T17:08:07;11.40;;;5.60;;
58354;SDS011;44160;49.080;19.302;2023-02-22T17:10:33;12.35;;;5.15;;
58354;SDS011;44160;49.080;19.302;2023-02-22T17:13:00;13.77;;;6.20;;
58354;SDS011;44160;49.080;19.302;2023-02-22T17:15:28;31.80;;;14.82;;
58354;SDS011;44160;49.080;19.302;2023-02-22T17:17:59;39.33;;;19.85;;
58354;SDS011;44160;49.080;19.302;2023-02-22T17:20:28;23.95;;;12.27;;
58354;SDS011;44160;49.080;19.302;2023-02-22T17:22:59;13.80;;;7.57;;
58354;SDS011;44160;49.080;19.302;2023-02-22T17:25:27;9.03;;;6.17;;
58354;SDS011;44160;49.080;19.302;2023-02-22T17:27:54;12.80;;;7.20;;
58354;SDS011;44160;49.080;19.302;2023-02-22T17:30:21;20.15;;;11.40;;
58354;SDS011;44160;49.080;19.302;2023-02-22T17:32:50;19.67;;;9.98;;
58354;SDS011;44160;49.080;19.302;2023-02-22T17:35:20;38.03;;;16.90;;
58354;SDS011;44160;49.080;19.302;2023-02-22T17:37:50;35.58;;;16.92;;
58354;SDS011;44160;49.080;19.302;2023-02-22T17:53:50;28.02;;;16.38;;
58354;SDS011;44160;49.080;19.302;2023-02-22T17:56:17;14.23;;;8.38;;
58354;SDS011;44160;49.080;19.302;2023-02-22T18:02:01;19.35;;;10.60;;
58354;SDS011;44160;49.080;19.302;2023-02-22T18:04:27;20.58;;;10.35;;
58354;SDS011;44160;49.080;19.302;2023-02-22T18:06:53;21.42;;;11.18;;
58354;SDS011;44160;49.080;19.302;2023-02-22T18:09:19;24.80;;;12.35;;
58354;SDS011;44160;49.080;19.302;2023-02-22T18:11:47;31.45;;;13.75;;
58354;SDS011;44160;49.080;19.302;2023-02-22T18:14:13;25.33;;;12.30;;
58354;SDS011;44160;49.080;19.302;2023-02-22T18:16:39;23.45;;;11.85;;
58354;SDS011;44160;49.080;19.302;2023-02-22T18:19:05;24.27;;;12.07;;
58354;SDS011;44160;49.080;19.302;2023-02-22T18:21:32;30.25;;;14.25;;